Detall de PIREP

Printer-friendly versionPDF version

[2016/06/04 08:39:00]
Flight IATA:CT3303
Pilot Number:012
Company ICAO:CAT
Aircraft Type:B738/F
PAX:160
Departing Airport: DTTA
Destination Airport: LEZG
Alternate Airport:LEBL
Online: VATSIM
Route:TOBIB/M080F360 UA725 TANIT UM733 CAR UM732 GINOX/M080F370 UM601 BCN UN725 LOBAR
Flight Level:F370
No Slew and time accel
No pause
Crash detect
Detect pilot in Cockpit between each 30 and 45 minutes
08:39 Zero fuel Weight: 138521 Lbs, Fuel Weight: 20432 Lbs
08:39 VATSIM:DTTA 040830Z VRB03KT 9999 FEW030 24/17 Q1014 NOSIG
08:39 VATSIM:LEZG 040830Z 29007KT 250V340 9999 FEW040 SCT085 22/13 Q1013
08:41 Parking Brakes off
08:53 Take-off
08:53 Take off Weight: 157459 Lbs
08:53 Wind: 358º @ 002 Knots Heading: 007º
08:53 POS N36º 51´ 52´´ E010º 13´ 52´´
08:53 Gear Up: 168 Knots
08:53 Flaps:3 at 168 Knots
08:53 Flaps:2 at 196 Knots
08:53 Flaps:1 at 200 Knots
08:53 Flaps:0 at 201 Knots
09:08 Wind:256º@053 Knots Heading: 339º Ground Speed: 457 Knots Altitude 26397 ft
09:23 Wind:263º@053 Knots Heading: 321º Ground Speed: 444 Knots Altitude 35984 ft
09:38 Wind:263º@034 Knots Heading: 272º Ground Speed: 437 Knots Altitude 34986 ft
09:53 Wind:257º@038 Knots Heading: 276º Ground Speed: 431 Knots Altitude 34980 ft
10:08 Wind:233º@008 Knots Heading: 279º Ground Speed: 463 Knots Altitude 34973 ft
10:23 Wind:356º@004 Knots Heading: 286º Ground Speed: 360 Knots Altitude 12408 ft
10:25 Flaps:1 at 224 Knots
10:26 Flaps:2 at 205 Knots
10:31 Flaps:3 at 195 Knots
10:32 Flaps:4 at 175 Knots
10:32 Flaps:5 at 182 Knots
10:32 Gear Down: 181 Knots
10:33 Flaps:6 at 164 Knots
10:34 Flaps:7 at 153 Knots
10:34 Flaps:8 at 148 Knots
10:36 TouchDown:Rate -201 ft/min Speed: 129 Knots
10:36 VATSIM:LEZG 041000Z 28009KT 250V310 9999 FEW040TCU SCT085 23/11 Q1013
10:36 Land
10:36 Wind:281º@009 Knots
10:36 Heading: 303º
10:36 Flight Duration: 01:43
10:36 Landing Weight: 146395 Lbs
10:36 POS N41º 39´ 43´´ W001º 01´ 24´´
10:39 Parking brakes on
10:39 Block to Block Duration: 01:58
10:39 Final Fuel: 7647 Lbls
10:39 Spent Fuel: 12784 Lbls
10:39 Flight Length: 687 NM
10:39 TOD Land Length: 687 NM

Exportar CSV

Powered by Drupal - Modified by Danger4k